Time;durP1;ratioP1;P1;durP2;ratioP2;P2;SDS_P1;SDS_P2;PMS_P1;PMS_P2;Temp;Humidity;BMP_temperature;BMP_pressure;BME280_temperature;BME280_humidity;BME280_pressure;Samples;Min_cycle;Max_cycle;Signal;HPM_P1;HPM_P2
2021/11/07 00:00:08;;;;;;;84.07;41.50;;;;;;;2.95;100.00;96872.84;1040078;28;20261;-49
2021/11/07 00:00:45;;;;;;;85.80;42.55;;;;;;;2.89;100.00;96886.78;1031923;28;20249;-51
2021/11/07 00:06:19;;;;;;;87.10;41.95;;;;;;;2.83;100.00;96908.50;1040091;28;20319;-49
2021/11/07 00:06:53;;;;;;;73.72;38.67;;;;;;;2.88;100.00;96909.25;1035863;28;20276;-50
2021/11/07 00:07:30;;;;;;;79.95;39.60;;;;;;;2.90;100.00;96912.66;1038231;28;20619;-51
2021/11/07 00:08:30;;;;;;;73.95;39.30;;;;;;;2.81;100.00;96901.69;1035840;28;20770;-51
2021/11/07 00:09:20;;;;;;;76.57;39.65;;;;;;;2.83;100.00;96897.31;1031634;28;20289;-51
2021/11/07 00:10:17;;;;;;;81.15;40.60;;;;;;;2.79;100.00;96885.34;1033246;28;20000;-49
2021/11/07 00:10:52;;;;;;;73.65;39.88;;;;;;;2.78;100.00;96875.84;1035203;28;20022;-50
2021/11/07 00:11:31;;;;;;;75.00;39.28;;;;;;;2.81;100.00;96878.38;1031778;28;20264;-50
2021/11/07 00:12:13;;;;;;;75.35;41.75;;;;;;;2.73;100.00;96873.41;1027742;28;20270;-49
2021/11/07 00:12:47;;;;;;;83.85;39.38;;;;;;;2.76;100.00;96875.91;1031022;28;20249;-52
2021/11/07 00:13:26;;;;;;;76.05;40.00;;;;;;;2.76;100.00;96868.16;1031693;28;20261;-51
2021/11/07 00:13:57;;;;;;;77.72;42.22;;;;;;;2.72;100.00;96866.50;1034358;28;20265;-50
2021/11/07 00:14:28;;;;;;;74.00;40.08;;;;;;;2.76;100.00;96868.16;1036003;28;20038;-50
2021/11/07 00:14:59;;;;;;;86.82;43.53;;;;;;;2.77;100.00;96861.25;1024941;28;20378;-49
2021/11/07 00:15:30;;;;;;;86.50;42.63;;;;;;;2.71;100.00;96865.66;1029360;28;20021;-52
2021/11/07 00:16:06;;;;;;;82.63;42.85;;;;;;;2.72;100.00;96861.34;1019841;29;20271;-50
2021/11/07 00:16:39;;;;;;;82.90;40.63;;;;;;;2.71;100.00;96862.25;1025637;28;20273;-49
2021/11/07 00:17:09;;;;;;;80.18;42.40;;;;;;;2.72;100.00;96861.34;1031887;28;20261;-50
2021/11/07 00:17:46;;;;;;;75.75;40.70;;;;;;;2.75;100.00;96856.09;1031474;28;20318;-52
2021/11/07 00:18:21;;;;;;;87.22;42.88;;;;;;;2.76;100.00;96867.28;1031800;28;20074;-50
2021/11/07 00:19:04;;;;;;;84.13;40.85;;;;;;;2.74;100.00;96864.75;1031763;28;20293;-50
2021/11/07 00:19:41;;;;;;;83.85;43.00;;;;;;;2.76;100.00;96869.88;1027746;28;20292;-52
2021/11/07 00:20:22;;;;;;;89.50;42.03;;;;;;;2.71;100.00;96868.25;1031012;28;20261;-50
2021/11/07 00:21:02;;;;;;;82.70;41.70;;;;;;;2.71;100.00;96868.25;1027872;28;20635;-50
2021/11/07 00:24:28;;;;;;;93.85;44.03;;;;;;;2.66;100.00;96858.91;1027895;28;20026;-50
2021/11/07 00:28:09;;;;;;;92.65;43.08;;;;;;;2.52;100.00;96854.06;1025046;28;20425;-51
2021/11/07 00:28:49;;;;;;;100.75;45.03;;;;;;;2.53;100.00;96858.34;1023752;28;20326;-50
2021/11/07 00:37:42;;;;;;;92.35;42.42;;;;;;;2.51;100.00;96873.06;1039984;28;20080;-50
2021/11/07 00:38:19;;;;;;;81.30;41.60;;;;;;;2.56;100.00;96870.38;1036955;28;20022;-50
2021/11/07 00:38:58;;;;;;;79.00;42.92;;;;;;;2.53;100.00;96871.28;1035665;28;20280;-52
2021/11/07 00:39:40;;;;;;;84.72;41.75;;;;;;;2.52;100.00;96867.00;1027761;28;20262;-52
2021/11/07 00:40:24;;;;;;;82.25;39.63;;;;;;;2.48;100.00;96870.56;1027359;28;20320;-51
2021/11/07 00:43:33;;;;;;;88.82;42.10;;;;;;;2.52;100.00;96854.06;1027619;28;20480;-50
2021/11/07 00:44:19;;;;;;;76.20;39.42;;;;;;;2.55;100.00;96858.31;1032389;28;20285;-50
2021/11/07 00:45:03;;;;;;;67.43;37.25;;;;;;;2.61;100.00;96852.97;1035955;28;20292;-50
2021/11/07 00:48:25;;;;;;;79.00;39.35;;;;;;;2.44;100.00;96855.97;1035824;28;20253;-52
2021/11/07 00:49:03;;;;;;;71.43;38.15;;;;;;;2.48;100.00;96853.28;1036042;28;20261;-51
2021/11/07 00:49:39;;;;;;;81.43;39.88;;;;;;;2.41;100.00;96854.31;1032647;28;20269;-49
2021/11/07 00:50:15;;;;;;;73.68;39.45;;;;;;;2.35;100.00;96851.88;1036559;28;20257;-49
2021/11/07 00:51:02;;;;;;;68.78;38.40;;;;;;;2.36;100.00;96845.81;1040082;28;20800;-50
2021/11/07 00:51:43;;;;;;;75.97;38.38;;;;;;;2.34;100.00;96843.25;1035569;28;20359;-50
2021/11/07 00:52:20;;;;;;;91.22;40.72;;;;;;;2.30;100.00;96845.97;1023714;29;20267;-52
2021/11/07 00:52:56;;;;;;;73.88;40.10;;;;;;;2.39;100.00;96850.91;1023434;29;20282;-51
2021/11/07 00:54:15;;;;;;;78.90;40.25;;;;;;;2.40;100.00;96847.44;1032805;28;20768;-50
2021/11/07 00:54:56;;;;;;;83.63;41.45;;;;;;;2.31;100.00;96848.53;1039730;28;20028;-53
2021/11/07 00:55:41;;;;;;;84.07;41.80;;;;;;;2.32;100.00;96855.38;1043625;28;20583;-54
2021/11/07 00:56:19;;;;;;;81.72;39.92;;;;;;;2.27;100.00;96849.47;1039632;28;20813;-51
2021/11/07 00:56:54;;;;;;;75.35;39.78;;;;;;;2.35;100.00;96849.31;1039694;28;20681;-53
2021/11/07 00:57:50;;;;;;;81.03;39.30;;;;;;;2.29;100.00;96846.84;1035560;28;20311;-51
2021/11/07 00:58:20;;;;;;;;;;;;;;;2.24;100.00;96844.38;1035991;28;20269;-55
2021/11/07 01:01:19;;;;;;;87.55;43.00;;;;;;;2.24;100.00;96849.53;1031510;28;20795;-50
2021/11/07 01:02:01;;;;;;;88.97;42.50;;;;;;;2.20;100.00;96837.56;1032296;28;20022;-52
2021/11/07 01:02:34;;;;;;;78.20;40.85;;;;;;;2.33;100.00;96853.66;1035694;28;20249;-55
2021/11/07 01:03:12;;;;;;;76.35;39.95;;;;;;;2.32;100.00;96845.03;1036399;28;20293;-52
2021/11/07 01:03:44;;;;;;;74.88;39.75;;;;;;;2.29;100.00;96855.47;1039712;28;20268;-52
2021/11/07 01:04:15;;;;;;;77.25;38.20;;;;;;;2.28;100.00;96847.75;1035606;28;20261;-53
2021/11/07 01:04:48;;;;;;;87.57;41.22;;;;;;;2.24;100.00;96851.28;1033072;28;20416;-51
2021/11/07 01:05:22;;;;;;;75.00;39.38;;;;;;;2.25;100.00;96848.66;1035715;28;20288;-53
2021/11/07 01:05:53;;;;;;;78.88;40.50;;;;;;;2.28;100.00;96848.56;1036521;28;20710;-52
2021/11/07 01:06:23;;;;;;;83.03;41.55;;;;;;;2.24;100.00;96841.78;1032586;28;20631;-50
2021/11/07 01:06:54;;;;;;;82.00;40.47;;;;;;;2.28;100.00;96839.97;1035540;28;20261;-53
2021/11/07 01:07:25;;;;;;;79.97;40.63;;;;;;;2.24;100.00;96833.19;1031499;28;20526;-49
2021/11/07 01:07:57;;;;;;;73.80;40.20;;;;;;;2.31;100.00;96834.75;1027399;28;20572;-50
2021/11/07 01:08:28;;;;;;;86.13;42.28;;;;;;;2.21;100.00;96815.16;1027663;28;20524;-53
2021/11/07 01:09:00;;;;;;;77.30;40.22;;;;;;;2.27;100.00;96826.22;1027479;28;20270;-53
2021/11/07 01:09:30;;;;;;;86.30;43.10;;;;;;;2.24;100.00;96821.09;1024625;28;20023;-55
2021/11/07 01:10:01;;;;;;;87.07;41.92;;;;;;;2.22;100.00;96822.88;1027451;28;20266;-51
2021/11/07 01:10:32;;;;;;;86.55;42.50;;;;;;;2.26;100.00;96823.66;1028021;28;20027;-50
2021/11/07 01:11:03;;;;;;;87.72;41.75;;;;;;;2.28;100.00;96821.88;1035803;28;20100;-53
2021/11/07 01:11:33;;;;;;;85.68;42.95;;;;;;;2.25;100.00;96816.78;1035475;28;20025;-51
2021/11/07 01:12:05;;;;;;;84.57;40.00;;;;;;;2.27;100.00;96820.16;1027363;28;20257;-53
2021/11/07 01:12:36;;;;;;;82.90;39.85;;;;;;;2.22;100.00;96819.44;1027422;28;20122;-52
2021/11/07 01:13:07;;;;;;;90.03;42.42;;;;;;;2.17;100.00;96822.13;1023937;28;20273;-53
2021/11/07 01:13:38;;;;;;;85.60;41.97;;;;;;;2.16;100.00;96823.03;1024085;28;20047;-51
2021/11/07 01:14:09;;;;;;;81.20;42.80;;;;;;;2.23;100.00;96823.72;1031522;28;20397;-52
2021/11/07 01:14:40;;;;;;;90.63;43.28;;;;;;;2.22;100.00;96832.38;1019632;28;20027;-52
2021/11/07 01:15:11;;;;;;;83.00;42.92;;;;;;;2.26;100.00;96826.25;1023738;28;20365;-55
2021/11/07 01:15:41;;;;;;;90.50;44.17;;;;;;;2.27;100.00;96833.97;1027490;28;20058;-53
2021/11/07 01:16:12;;;;;;;83.57;41.45;;;;;;;2.31;100.00;96833.00;1031360;28;20025;-52
2021/11/07 01:16:43;;;;;;;79.22;41.65;;;;;;;2.40;100.00;96836.25;1023776;29;20055;-53
2021/11/07 01:17:13;;;;;;;82.90;42.72;;;;;;;2.40;100.00;96831.91;1024353;29;20086;-52
2021/11/07 01:17:44;;;;;;;86.07;42.50;;;;;;;2.39;100.00;96830.22;1024682;28;20038;-52
2021/11/07 01:18:16;;;;;;;82.78;42.50;;;;;;;2.41;100.00;96825.88;1032537;28;20026;-54
2021/11/07 01:18:46;;;;;;;83.72;42.78;;;;;;;2.42;100.00;96821.53;1036172;28;20084;-52
2021/11/07 01:19:17;;;;;;;81.82;42.28;;;;;;;2.44;100.00;96824.94;1036310;28;20332;-53
2021/11/07 01:19:52;;;;;;;75.25;41.83;;;;;;;2.46;100.00;96820.56;1028593;28;20023;-52
2021/11/07 01:20:26;;;;;;;86.70;42.67;;;;;;;2.51;100.00;96824.75;1028929;28;20031;-52
2021/11/07 01:20:57;;;;;;;85.95;41.08;;;;;;;2.50;100.00;96819.63;1032145;28;20284;-52
2021/11/07 01:21:31;;;;;;;85.03;43.17;;;;;;;2.49;100.00;96816.19;1034618;28;20639;-53
2021/11/07 01:22:05;;;;;;;84.70;41.72;;;;;;;2.50;100.00;96817.91;1036271;28;20089;-49
2021/11/07 01:22:58;;;;;;;89.30;43.67;;;;;;;2.50;100.00;96817.06;1033069;28;20274;-53
2021/11/07 01:23:46;;;;;;;87.68;42.85;;;;;;;2.46;100.00;96821.44;1032127;28;20261;-52
2021/11/07 01:24:24;;;;;;;88.47;42.83;;;;;;;2.49;100.00;96812.75;1038032;28;20265;-54
2021/11/07 01:24:59;;;;;;;88.00;41.47;;;;;;;2.39;100.00;96816.47;1042740;28;20272;-52
2021/11/07 01:25:34;;;;;;;88.00;45.03;;;;;;;2.39;100.00;96814.72;1040314;28;20326;-52
2021/11/07 01:26:14;;;;;;;84.07;43.47;;;;;;;2.41;100.00;96812.94;1040377;28;20347;-55
2021/11/07 01:26:49;;;;;;;85.20;42.90;;;;;;;2.40;100.00;96812.97;1036158;28;20284;-53
2021/11/07 01:27:39;;;;;;;81.40;42.35;;;;;;;2.45;100.00;96816.31;1028327;28;20069;-53
2021/11/07 01:28:11;;;;;;;72.97;41.08;;;;;;;2.44;100.00;96817.19;1024334;29;20281;-53
2021/11/07 01:28:48;;;;;;;73.93;39.70;;;;;;;2.46;100.00;96821.44;1031681;28;20272;-53
2021/11/07 01:29:23;;;;;;;76.78;38.80;;;;;;;2.46;100.00;96818.84;1039975;28;20777;-53
2021/11/07 01:29:56;;;;;;;78.97;42.53;;;;;;;2.46;100.00;96818.00;1042126;28;20330;-52
2021/11/07 01:30:29;;;;;;;75.43;41.13;;;;;;;2.48;100.00;96811.91;1036280;28;20429;-52
2021/11/07 01:31:00;;;;;;;81.10;41.63;;;;;;;2.51;100.00;96817.00;1024096;28;20274;-55
2021/11/07 01:31:33;;;;;;;69.68;40.60;;;;;;;2.56;100.00;96813.47;1024085;29;20263;-52
2021/11/07 01:32:04;;;;;;;72.20;39.83;;;;;;;2.51;100.00;96806.63;1028056;28;20034;-53
2021/11/07 01:32:39;;;;;;;71.95;40.70;;;;;;;2.57;100.00;96799.63;1028414;28;20317;-53
2021/11/07 01:33:16;;;;;;;65.93;39.83;;;;;;;2.59;100.00;96796.13;1027865;28;20262;-52
2021/11/07 01:33:47;;;;;;;67.85;40.10;;;;;;;2.60;100.00;96786.63;1025573;28;20296;-53
2021/11/07 01:35:54;;;;;;;66.57;39.30;;;;;;;2.52;100.00;96786.81;1034707;28;20277;-52
2021/11/07 01:36:35;;;;;;;69.60;38.10;;;;;;;2.49;100.00;96782.56;1032170;28;20285;-51
2021/11/07 01:37:14;;;;;;;74.78;40.75;;;;;;;2.41;100.00;96786.25;1028209;28;20679;-52
2021/11/07 01:37:57;;;;;;;71.45;41.25;;;;;;;2.44;100.00;96787.00;1032243;28;20828;-50
2021/11/07 01:38:34;;;;;;;67.50;38.60;;;;;;;2.47;100.00;96786.91;1036252;28;20276;-52
2021/11/07 01:39:33;;;;;;;75.90;40.47;;;;;;;2.44;100.00;96787.00;1028633;28;20302;-52
2021/11/07 01:40:04;;;;;;;75.88;40.55;;;;;;;2.45;100.00;96780.94;1033329;28;20266;-54
2021/11/07 01:40:41;;;;;;;71.25;40.00;;;;;;;2.43;100.00;96787.03;1040350;28;20268;-52
2021/11/07 01:44:07;;;;;;;73.75;42.63;;;;;;;2.62;100.00;96790.03;1040337;28;20026;-52
2021/11/07 01:44:43;;;;;;;77.32;41.85;;;;;;;2.58;100.00;96796.16;1036386;28;20040;-52
2021/11/07 01:45:22;;;;;;;71.65;41.47;;;;;;;2.64;100.00;96793.41;1036193;28;20777;-51
2021/11/07 01:46:33;;;;;;;69.70;40.85;;;;;;;2.69;100.00;96778.63;1032129;28;20022;-53
2021/11/07 01:47:04;;;;;;;69.68;40.88;;;;;;;2.72;100.00;96778.53;1024112;28;20263;-55
2021/11/07 01:47:41;;;;;;;71.22;41.72;;;;;;;2.75;100.00;96780.22;1032026;28;20698;-53
2021/11/07 01:48:16;;;;;;;71.07;40.65;;;;;;;2.72;100.00;96781.13;1032260;28;20431;-53
2021/11/07 01:48:54;;;;;;;69.50;40.80;;;;;;;2.73;100.00;96777.66;1027919;28;20687;-52
2021/11/07 01:49:33;;;;;;;68.68;40.35;;;;;;;2.71;100.00;96775.09;1031994;28;20297;-51
2021/11/07 01:50:05;;;;;;;66.25;38.40;;;;;;;2.71;100.00;96779.44;1028075;28;20289;-54
2021/11/07 01:50:40;;;;;;;63.53;37.72;;;;;;;2.71;100.00;96775.09;1036119;28;20280;-53
2021/11/07 01:51:11;;;;;;;70.68;40.10;;;;;;;2.67;100.00;96777.81;1032078;28;20273;-52
2021/11/07 01:51:53;;;;;;;65.55;38.90;;;;;;;2.65;100.00;96767.50;1032001;28;20269;-52
2021/11/07 01:52:25;;;;;;;64.15;39.17;;;;;;;2.60;100.00;96766.78;1029770;28;20019;-55
2021/11/07 01:53:05;;;;;;;61.05;38.28;;;;;;;2.58;100.00;96763.38;1025640;28;20275;-53
2021/11/07 01:53:38;;;;;;;;;;;;;;;2.69;100.00;96760.53;1027524;28;20312;-55
2021/11/07 01:54:18;;;;;;;61.35;36.53;;;;;;;2.63;100.00;96758.09;1029906;28;19948;-53
2021/11/07 01:54:55;;;;;;;62.72;38.22;;;;;;;2.68;100.00;96754.50;1035078;28;20265;-50
2021/11/07 01:55:27;;;;;;;65.80;39.72;;;;;;;2.68;100.00;96758.81;1036947;28;20869;-51
2021/11/07 01:55:59;;;;;;;64.88;39.15;;;;;;;2.66;100.00;96740.72;1035998;28;20646;-52
2021/11/07 01:56:30;;;;;;;61.17;38.13;;;;;;;2.70;100.00;96750.13;1032184;28;20825;-52
2021/11/07 01:57:01;;;;;;;64.03;39.83;;;;;;;2.73;100.00;96751.78;1031986;28;20277;-55
2021/11/07 01:57:33;;;;;;;61.65;37.53;;;;;;;2.80;100.00;96753.31;1028041;28;20110;-53
2021/11/07 01:58:05;;;;;;;54.08;35.38;;;;;;;2.83;100.00;96752.38;1027879;28;20038;-53
2021/11/07 01:58:36;;;;;;;55.53;36.30;;;;;;;2.76;100.00;96756.88;1028006;28;20380;-52
2021/11/07 01:59:06;;;;;;;58.80;37.30;;;;;;;2.69;100.00;96756.19;1031921;28;20823;-55
2021/11/07 01:59:46;;;;;;;56.00;36.97;;;;;;;2.64;100.00;96758.03;1031997;28;20261;-52
2021/11/07 02:00:21;;;;;;;58.90;35.53;;;;;;;2.68;100.00;96749.34;1033461;28;20101;-52
2021/11/07 02:00:52;;;;;;;59.42;36.40;;;;;;;2.70;100.00;96757.03;1031689;28;20314;-52
2021/11/07 02:01:23;;;;;;;55.63;35.45;;;;;;;2.62;100.00;96748.63;1036065;28;20619;-52
2021/11/07 02:01:56;;;;;;;53.22;33.50;;;;;;;2.65;100.00;96746.81;1032046;28;20273;-52
2021/11/07 02:02:29;;;;;;;56.33;34.83;;;;;;;2.67;100.00;96746.78;1031922;28;20687;-53
2021/11/07 02:03:00;;;;;;;51.28;35.40;;;;;;;2.65;100.00;96745.97;1019870;28;20665;-52
2021/11/07 02:03:31;;;;;;;51.08;33.53;;;;;;;2.62;100.00;96739.13;1024839;28;20259;-52
2021/11/07 02:04:03;;;;;;;51.67;34.40;;;;;;;2.64;100.00;96741.66;1028386;28;20023;-51
2021/11/07 02:04:34;;;;;;;51.00;32.97;;;;;;;2.61;100.00;96731.38;1028033;28;20262;-52
2021/11/07 02:05:06;;;;;;;49.67;32.78;;;;;;;2.57;100.00;96735.78;1023972;29;20637;-52
2021/11/07 02:05:37;;;;;;;49.47;33.22;;;;;;;2.58;100.00;96729.75;1020048;29;20020;-52
2021/11/07 02:06:07;;;;;;;51.95;33.63;;;;;;;2.61;100.00;96740.03;1023873;29;20262;-53
2021/11/07 02:06:38;;;;;;;49.10;34.70;;;;;;;2.65;100.00;96733.88;1027737;28;20541;-52
2021/11/07 02:07:09;;;;;;;49.35;34.50;;;;;;;2.62;100.00;96735.69;1027896;28;20021;-52
2021/11/07 02:07:40;;;;;;;50.30;34.92;;;;;;;2.65;100.00;96735.63;1027993;28;20057;-53
2021/11/07 02:08:10;;;;;;;53.38;35.05;;;;;;;2.62;100.00;96746.88;1028103;28;20019;-52
2021/11/07 02:08:41;;;;;;;46.53;32.13;;;;;;;2.64;100.00;96744.25;1032329;28;20101;-53
2021/11/07 02:09:12;;;;;;;47.22;32.10;;;;;;;2.69;100.00;96745.00;1036108;28;20022;-52
2021/11/07 02:09:42;;;;;;;49.72;32.30;;;;;;;2.59;100.00;96752.16;1032158;28;20025;-52
2021/11/07 02:10:15;;;;;;;47.15;32.45;;;;;;;2.56;100.00;96756.56;1031933;28;20088;-53
2021/11/07 02:10:45;;;;;;;44.20;30.15;;;;;;;2.52;100.00;96787.66;1027827;28;20029;-53
2021/11/07 02:11:16;;;;;;;45.92;31.60;;;;;;;2.52;100.00;96795.41;1031986;28;20276;-53
2021/11/07 02:11:47;;;;;;;47.00;32.15;;;;;;;2.51;100.00;96790.28;1028012;28;20018;-52
2021/11/07 02:12:17;;;;;;;47.60;31.27;;;;;;;2.49;100.00;96781.72;1028239;28;20051;-54
2021/11/07 02:12:48;;;;;;;47.33;32.83;;;;;;;2.49;100.00;96779.97;1031851;28;20400;-53
2021/11/07 02:13:20;;;;;;;44.95;31.38;;;;;;;2.48;100.00;96777.44;1036165;28;20022;-52
2021/11/07 02:13:50;;;;;;;44.88;31.58;;;;;;;2.53;100.00;96768.69;1035911;28;20076;-52
2021/11/07 02:14:21;;;;;;;42.38;30.95;;;;;;;2.57;100.00;96771.16;1027953;28;20258;-49
2021/11/07 02:14:51;;;;;;;45.42;32.22;;;;;;;2.51;100.00;96769.59;1023818;29;20412;-51
2021/11/07 02:15:22;;;;;;;47.80;29.75;;;;;;;2.48;100.00;96760.19;1024082;28;20027;-51
2021/11/07 02:15:54;;;;;;;42.55;30.92;;;;;;;2.50;100.00;96760.16;1027963;28;20019;-50
2021/11/07 02:16:25;;;;;;;44.90;31.80;;;;;;;2.48;100.00;96756.75;1027987;28;20022;-54
2021/11/07 02:16:56;;;;;;;43.17;30.75;;;;;;;2.47;100.00;96761.06;1024338;28;20781;-52
2021/11/07 02:17:26;;;;;;;43.78;31.40;;;;;;;2.42;100.00;96755.16;1031956;28;20453;-53
2021/11/07 02:17:57;;;;;;;46.53;32.22;;;;;;;2.44;100.00;96749.94;1032061;28;20041;-52
2021/11/07 02:18:29;;;;;;;47.78;30.85;;;;;;;2.48;100.00;96756.75;1031880;28;20023;-52
2021/11/07 02:19:00;;;;;;;43.63;31.25;;;;;;;2.49;100.00;96758.44;1031912;28;20257;-52
2021/11/07 02:19:31;;;;;;;44.00;30.85;;;;;;;2.51;100.00;96754.91;1031850;28;20273;-53
2021/11/07 02:20:04;;;;;;;46.08;32.25;;;;;;;2.49;100.00;96753.25;1028254;28;20269;-53
2021/11/07 02:20:37;;;;;;;43.53;29.92;;;;;;;2.53;100.00;96755.75;1028542;28;20472;-53
2021/11/07 02:21:08;;;;;;;44.22;30.25;;;;;;;2.40;100.00;96758.66;1032861;28;20348;-54
2021/11/07 02:21:38;;;;;;;42.70;31.17;;;;;;;2.43;100.00;96754.25;1032723;28;20307;-53
2021/11/07 02:22:09;;;;;;;41.03;29.65;;;;;;;2.36;100.00;96759.63;1028406;28;20019;-52
2021/11/07 02:22:41;;;;;;;47.10;31.77;;;;;;;2.39;100.00;96762.16;1031924;28;20432;-53
2021/11/07 02:23:15;;;;;;;48.85;32.50;;;;;;;2.33;100.00;96765.75;1027710;28;20258;-52
2021/11/07 02:23:46;;;;;;;47.88;32.15;;;;;;;2.33;100.00;96760.56;1028562;28;20265;-55
2021/11/07 02:24:17;;;;;;;44.83;29.67;;;;;;;2.34;100.00;96762.25;1035258;28;20253;-52
2021/11/07 02:24:47;;;;;;;43.83;28.33;;;;;;;2.36;100.00;96757.03;1028532;28;20074;-52
2021/11/07 02:25:18;;;;;;;43.55;31.60;;;;;;;2.36;100.00;96760.47;1028005;28;20269;-54
2021/11/07 02:25:50;;;;;;;42.20;30.20;;;;;;;2.44;100.00;96750.81;1031964;28;20019;-53
2021/11/07 02:26:21;;;;;;;46.35;31.27;;;;;;;2.48;100.00;96751.56;1028678;28;20014;-53
2021/11/07 02:26:54;;;;;;;43.88;30.30;;;;;;;2.50;100.00;96749.81;1024140;28;20305;-52
2021/11/07 02:27:25;;;;;;;45.60;31.30;;;;;;;2.43;100.00;96749.09;1027880;28;20089;-52
2021/11/07 02:27:56;;;;;;;44.00;30.73;;;;;;;2.34;100.00;96747.56;1031720;28;20281;-52
2021/11/07 02:28:30;;;;;;;41.83;28.65;;;;;;;2.32;100.00;96753.69;1031335;28;20084;-53
2021/11/07 02:29:00;;;;;;;44.55;29.27;;;;;;;2.34;100.00;96750.16;1028579;28;20365;-53
2021/11/07 02:29:32;;;;;;;46.13;30.40;;;;;;;2.31;100.00;96760.59;1028378;28;20265;-53
2021/11/07 02:30:03;;;;;;;45.47;31.27;;;;;;;2.31;100.00;96752.00;1035948;28;20018;-53
2021/11/07 02:30:35;;;;;;;46.10;30.63;;;;;;;2.31;100.00;96764.94;1035964;28;20327;-54
2021/11/07 02:31:07;;;;;;;44.72;30.25;;;;;;;2.29;100.00;96757.22;1027895;28;20481;-55
2021/11/07 02:31:38;;;;;;;42.55;30.23;;;;;;;2.29;100.00;96757.22;1028527;28;20276;-51
2021/11/07 02:32:09;;;;;;;46.42;31.08;;;;;;;2.29;100.00;96756.34;1028381;28;20270;-52
2021/11/07 02:32:39;;;;;;;44.88;30.77;;;;;;;2.35;100.00;96761.38;1032246;28;20010;-53
2021/11/07 02:33:10;;;;;;;44.42;30.67;;;;;;;2.28;100.00;96763.25;1035796;28;20017;-53
2021/11/07 02:33:41;;;;;;;46.10;31.27;;;;;;;2.32;100.00;96764.03;1035770;28;20038;-53
2021/11/07 02:34:12;;;;;;;45.70;31.27;;;;;;;2.34;100.00;96754.50;1036344;28;20388;-53
2021/11/07 02:34:42;;;;;;;42.35;29.70;;;;;;;2.39;100.00;96759.56;1031721;28;20264;-54
2021/11/07 02:35:13;;;;;;;40.00;29.25;;;;;;;2.43;100.00;96759.44;1028009;28;20031;-53
2021/11/07 02:35:44;;;;;;;41.17;29.58;;;;;;;2.43;100.00;96758.59;1027831;28;20047;-52
2021/11/07 02:36:17;;;;;;;43.78;30.63;;;;;;;2.36;100.00;96760.47;1028337;28;20019;-55
2021/11/07 02:36:48;;;;;;;42.90;28.95;;;;;;;2.29;100.00;96752.03;1036634;28;20014;-53
2021/11/07 02:37:19;;;;;;;40.80;29.85;;;;;;;2.32;100.00;96746.75;1035996;28;20256;-54
2021/11/07 02:37:50;;;;;;;40.13;28.40;;;;;;;2.32;100.00;96741.59;1031750;28;20281;-52
2021/11/07 02:38:20;;;;;;;40.05;29.48;;;;;;;2.33;100.00;96735.53;1032167;28;20360;-51
2021/11/07 02:38:51;;;;;;;43.25;29.85;;;;;;;2.27;100.00;96732.25;1027797;28;20019;-53
2021/11/07 02:39:22;;;;;;;39.22;27.92;;;;;;;2.29;100.00;96735.66;1023795;28;20023;-53
2021/11/07 02:39:53;;;;;;;41.78;29.85;;;;;;;2.26;100.00;96735.75;1023776;29;20027;-52
2021/11/07 02:40:25;;;;;;;40.05;28.65;;;;;;;2.32;100.00;96725.25;1027985;28;20011;-52
2021/11/07 02:40:56;;;;;;;39.03;28.27;;;;;;;2.29;100.00;96731.34;1032264;28;20266;-53
2021/11/07 02:41:26;;;;;;;41.85;28.80;;;;;;;2.32;100.00;96725.25;1027891;28;20309;-52
2021/11/07 02:41:57;;;;;;;43.15;29.67;;;;;;;2.31;100.00;96726.16;1023686;29;20023;-54
2021/11/07 02:42:28;;;;;;;39.45;29.08;;;;;;;2.33;100.00;96717.44;1027793;28;20097;-53
2021/11/07 02:42:58;;;;;;;43.58;31.00;;;;;;;2.28;100.00;96721.88;1031598;28;20143;-51
2021/11/07 02:43:30;;;;;;;40.00;29.45;;;;;;;2.32;100.00;96714.91;1031793;28;20562;-53
2021/11/07 02:44:01;;;;;;;39.95;29.08;;;;;;;2.41;100.00;96711.25;1027702;28;20258;-54
2021/11/07 02:44:36;;;;;;;43.30;30.55;;;;;;;2.38;100.00;96706.97;1023929;29;20552;-52
2021/11/07 02:45:07;;;;;;;42.00;27.65;;;;;;;2.33;100.00;96701.94;1027768;28;20025;-52
2021/11/07 02:45:38;;;;;;;42.50;29.58;;;;;;;2.39;100.00;96700.09;1024603;28;20258;-52
2021/11/07 02:46:15;;;;;;;42.65;30.90;;;;;;;2.33;100.00;96706.25;1023824;28;20304;-52
2021/11/07 02:46:46;;;;;;;47.03;31.98;;;;;;;2.26;100.00;96695.22;1023854;29;20058;-52
2021/11/07 02:47:17;;;;;;;42.35;29.90;;;;;;;2.28;100.00;96692.59;1025938;28;20835;-52
2021/11/07 02:47:49;;;;;;;46.13;30.88;;;;;;;2.33;100.00;96688.16;1031777;28;20388;-53
2021/11/07 02:48:19;;;;;;;44.42;31.15;;;;;;;2.31;100.00;96688.19;1028248;28;20262;-53
2021/11/07 02:48:53;;;;;;;45.85;32.25;;;;;;;2.25;100.00;96690.06;1027803;28;20855;-51
2021/11/07 02:49:24;;;;;;;47.22;32.28;;;;;;;2.24;100.00;96693.56;1031806;28;20022;-52
2021/11/07 02:49:55;;;;;;;44.92;30.63;;;;;;;2.19;100.00;96691.09;1028613;28;20737;-53
2021/11/07 02:50:25;;;;;;;44.28;30.60;;;;;;;2.13;100.00;96688.66;1032455;28;20041;-52
2021/11/07 02:50:56;;;;;;;45.47;30.98;;;;;;;2.23;100.00;96694.44;1031869;28;20014;-52
2021/11/07 02:51:28;;;;;;;44.63;31.30;;;;;;;2.21;100.00;96693.63;1027849;28;20300;-51
2021/11/07 02:52:00;;;;;;;44.92;30.00;;;;;;;2.24;100.00;96694.41;1031732;28;20010;-55
2021/11/07 02:52:31;;;;;;;48.58;33.10;;;;;;;2.24;100.00;96693.56;1031769;28;20254;-52
2021/11/07 02:53:02;;;;;;;49.28;31.98;;;;;;;2.25;100.00;96692.66;1032153;28;20644;-51
2021/11/07 02:53:33;;;;;;;44.88;31.85;;;;;;;2.17;100.00;96689.44;1028347;28;20262;-52
2021/11/07 02:54:05;;;;;;;44.03;31.27;;;;;;;2.19;100.00;96687.66;1023706;29;20054;-54
2021/11/07 02:54:37;;;;;;;45.08;30.42;;;;;;;2.23;100.00;96690.13;1019717;29;20023;-52
2021/11/07 02:55:08;;;;;;;47.47;32.58;;;;;;;2.23;100.00;96690.13;1023703;29;20310;-53
2021/11/07 02:55:39;;;;;;;46.45;30.85;;;;;;;2.26;100.00;96692.63;1024991;28;20267;-51
2021/11/07 02:56:10;;;;;;;46.13;31.67;;;;;;;2.15;100.00;96686.88;1027729;28;20297;-53
2021/11/07 02:56:41;;;;;;;48.72;32.95;;;;;;;2.21;100.00;96691.88;1024027;28;20023;-53
2021/11/07 02:57:17;;;;;;;44.88;30.75;;;;;;;2.18;100.00;96696.28;1028049;28;20262;-53
2021/11/07 02:57:49;;;;;;;45.05;31.75;;;;;;;2.20;100.00;96702.28;1027722;28;20054;-54
2021/11/07 02:58:19;;;;;;;47.72;32.55;;;;;;;2.17;100.00;96699.78;1027711;28;20707;-55
2021/11/07 02:58:50;;;;;;;45.30;32.53;;;;;;;2.18;100.00;96704.91;1027733;28;20324;-51
2021/11/07 02:59:23;;;;;;;45.33;31.13;;;;;;;2.19;100.00;96708.34;1031707;28;20025;-52
2021/11/07 02:59:58;;;;;;;44.65;30.58;;;;;;;2.25;100.00;96711.63;1035739;28;20117;-53
2021/11/07 03:00:31;;;;;;;41.47;30.08;;;;;;;2.27;100.00;96716.75;1027817;28;20274;-55
2021/11/07 03:01:04;;;;;;;43.95;31.30;;;;;;;2.22;100.00;96718.63;1025012;28;20300;-54
2021/11/07 03:01:36;;;;;;;44.22;31.15;;;;;;;2.23;100.00;96728.06;1025207;28;20262;-50
2021/11/07 03:02:08;;;;;;;46.35;31.83;;;;;;;2.22;100.00;96727.22;1024676;28;20358;-52
2021/11/07 03:02:39;;;;;;;41.22;30.15;;;;;;;2.20;100.00;96731.56;1029243;28;20349;-52
2021/11/07 03:03:09;;;;;;;41.13;28.58;;;;;;;2.21;100.00;96733.25;1036224;28;20716;-52
2021/11/07 03:03:40;;;;;;;38.47;27.38;;;;;;;2.25;100.00;96734.91;1027935;28;20027;-53
2021/11/07 03:04:11;;;;;;;36.78;26.52;;;;;;;2.19;100.00;96731.59;1027797;28;20023;-53
2021/11/07 03:04:41;;;;;;;36.45;27.38;;;;;;;2.26;100.00;96735.75;1027703;28;20045;-52
2021/11/07 03:05:12;;;;;;;36.85;27.17;;;;;;;2.25;100.00;96734.03;1031873;28;20046;-53
2021/11/07 03:05:43;;;;;;;37.75;26.48;;;;;;;2.30;100.00;96732.19;1027717;28;20525;-52
2021/11/07 03:06:15;;;;;;;35.88;25.50;;;;;;;2.28;100.00;96728.78;1027911;28;20019;-53
2021/11/07 03:06:45;;;;;;;34.47;25.92;;;;;;;2.26;100.00;96728.81;1031638;28;20061;-52
2021/11/07 03:07:16;;;;;;;34.95;25.00;;;;;;;2.20;100.00;96720.41;1027606;28;20293;-51
2021/11/07 03:07:47;;;;;;;34.63;25.50;;;;;;;2.25;100.00;96723.69;1031815;28;20034;-51